sensor_id;sensor_type;location;lat;lon;timestamp;P1;durP1;ratioP1;P2;durP2;ratioP2
16965;SDS011;8599;47.852;12.070;2023-03-01T00:00:54;24.80;;;15.23;;
16965;SDS011;8599;47.852;12.070;2023-03-01T00:03:26;24.00;;;17.00;;
16965;SDS011;8599;47.852;12.070;2023-03-01T00:05:53;26.17;;;17.93;;
16965;SDS011;8599;47.852;12.070;2023-03-01T00:08:21;24.37;;;16.73;;
16965;SDS011;8599;47.852;12.070;2023-03-01T00:10:48;28.77;;;18.40;;
16965;SDS011;8599;47.852;12.070;2023-03-01T00:13:15;25.30;;;16.07;;
16965;SDS011;8599;47.852;12.070;2023-03-01T00:15:41;23.50;;;16.37;;
16965;SDS011;8599;47.852;12.070;2023-03-01T00:18:08;31.53;;;17.43;;
16965;SDS011;8599;47.852;12.070;2023-03-01T00:20:35;34.63;;;16.97;;
16965;SDS011;8599;47.852;12.070;2023-03-01T00:23:02;25.53;;;14.90;;
16965;SDS011;8599;47.852;12.070;2023-03-01T00:25:30;25.20;;;14.70;;
16965;SDS011;8599;47.852;12.070;2023-03-01T00:27:57;20.90;;;15.03;;
16965;SDS011;8599;47.852;12.070;2023-03-01T00:30:23;20.43;;;13.33;;
16965;SDS011;8599;47.852;12.070;2023-03-01T00:32:50;23.57;;;13.53;;
16965;SDS011;8599;47.852;12.070;2023-03-01T00:35:17;17.70;;;12.90;;
16965;SDS011;8599;47.852;12.070;2023-03-01T00:37:44;20.73;;;14.20;;
16965;SDS011;8599;47.852;12.070;2023-03-01T00:40:11;23.67;;;13.60;;
16965;SDS011;8599;47.852;12.070;2023-03-01T00:42:40;23.50;;;13.63;;
16965;SDS011;8599;47.852;12.070;2023-03-01T00:45:07;18.33;;;13.47;;
16965;SDS011;8599;47.852;12.070;2023-03-01T00:47:34;24.07;;;13.73;;
16965;SDS011;8599;47.852;12.070;2023-03-01T00:50:01;18.73;;;13.10;;
16965;SDS011;8599;47.852;12.070;2023-03-01T00:52:28;22.93;;;12.97;;
16965;SDS011;8599;47.852;12.070;2023-03-01T00:54:55;16.97;;;12.77;;
16965;SDS011;8599;47.852;12.070;2023-03-01T00:57:22;19.50;;;12.53;;
16965;SDS011;8599;47.852;12.070;2023-03-01T00:59:51;22.17;;;14.33;;
16965;SDS011;8599;47.852;12.070;2023-03-01T01:02:18;22.33;;;14.43;;
16965;SDS011;8599;47.852;12.070;2023-03-01T01:04:45;22.60;;;15.07;;
16965;SDS011;8599;47.852;12.070;2023-03-01T01:07:12;22.10;;;14.13;;
16965;SDS011;8599;47.852;12.070;2023-03-01T01:09:39;21.63;;;14.80;;
16965;SDS011;8599;47.852;12.070;2023-03-01T01:12:06;19.60;;;14.17;;
16965;SDS011;8599;47.852;12.070;2023-03-01T01:14:33;24.63;;;12.87;;
16965;SDS011;8599;47.852;12.070;2023-03-01T01:17:01;16.50;;;12.00;;
16965;SDS011;8599;47.852;12.070;2023-03-01T01:19:29;18.57;;;11.60;;
16965;SDS011;8599;47.852;12.070;2023-03-01T01:21:56;16.63;;;12.03;;
16965;SDS011;8599;47.852;12.070;2023-03-01T01:24:22;16.57;;;11.33;;
16965;SDS011;8599;47.852;12.070;2023-03-01T01:26:49;15.33;;;10.77;;
16965;SDS011;8599;47.852;12.070;2023-03-01T01:29:16;18.97;;;11.73;;
16965;SDS011;8599;47.852;12.070;2023-03-01T01:31:43;19.47;;;11.03;;
16965;SDS011;8599;47.852;12.070;2023-03-01T01:34:14;16.53;;;11.23;;
16965;SDS011;8599;47.852;12.070;2023-03-01T01:36:42;17.73;;;10.50;;
16965;SDS011;8599;47.852;12.070;2023-03-01T01:39:09;17.23;;;9.83;;
16965;SDS011;8599;47.852;12.070;2023-03-01T01:41:38;17.90;;;10.87;;
16965;SDS011;8599;47.852;12.070;2023-03-01T01:44:11;15.67;;;10.37;;
16965;SDS011;8599;47.852;12.070;2023-03-01T01:46:44;19.70;;;11.60;;
16965;SDS011;8599;47.852;12.070;2023-03-01T01:52:04;18.73;;;10.37;;
16965;SDS011;8599;47.852;12.070;2023-03-01T01:54:38;14.00;;;9.97;;
16965;SDS011;8599;47.852;12.070;2023-03-01T01:57:09;17.40;;;11.50;;
16965;SDS011;8599;47.852;12.070;2023-03-01T01:59:38;16.67;;;11.43;;
16965;SDS011;8599;47.852;12.070;2023-03-01T02:02:09;16.33;;;10.67;;
16965;SDS011;8599;47.852;12.070;2023-03-01T02:04:38;14.33;;;10.50;;
16965;SDS011;8599;47.852;12.070;2023-03-01T02:07:07;18.77;;;10.53;;
16965;SDS011;8599;47.852;12.070;2023-03-01T02:09:39;19.17;;;10.83;;
16965;SDS011;8599;47.852;12.070;2023-03-01T02:12:09;20.87;;;10.57;;
16965;SDS011;8599;47.852;12.070;2023-03-01T02:14:36;13.53;;;9.43;;
16965;SDS011;8599;47.852;12.070;2023-03-01T02:17:02;14.57;;;10.03;;
16965;SDS011;8599;47.852;12.070;2023-03-01T02:19:33;16.43;;;10.37;;
16965;SDS011;8599;47.852;12.070;2023-03-01T02:22:17;15.07;;;9.83;;
16965;SDS011;8599;47.852;12.070;2023-03-01T02:24:50;17.53;;;10.87;;
16965;SDS011;8599;47.852;12.070;2023-03-01T02:27:28;14.97;;;9.90;;
16965;SDS011;8599;47.852;12.070;2023-03-01T02:30:04;15.13;;;11.03;;
16965;SDS011;8599;47.852;12.070;2023-03-01T02:32:32;17.67;;;10.83;;
16965;SDS011;8599;47.852;12.070;2023-03-01T02:34:59;21.90;;;11.23;;
16965;SDS011;8599;47.852;12.070;2023-03-01T02:37:26;18.03;;;11.10;;
16965;SDS011;8599;47.852;12.070;2023-03-01T02:39:55;16.17;;;9.63;;
16965;SDS011;8599;47.852;12.070;2023-03-01T02:42:26;18.03;;;11.83;;
16965;SDS011;8599;47.852;12.070;2023-03-01T02:44:56;15.70;;;10.20;;
16965;SDS011;8599;47.852;12.070;2023-03-01T02:47:24;19.03;;;10.90;;
16965;SDS011;8599;47.852;12.070;2023-03-01T02:49:51;21.33;;;11.17;;
16965;SDS011;8599;47.852;12.070;2023-03-01T02:52:23;15.00;;;10.20;;
16965;SDS011;8599;47.852;12.070;2023-03-01T02:55:00;14.47;;;9.70;;
16965;SDS011;8599;47.852;12.070;2023-03-01T02:57:30;17.87;;;10.83;;
16965;SDS011;8599;47.852;12.070;2023-03-01T02:59:59;16.30;;;11.90;;
16965;SDS011;8599;47.852;12.070;2023-03-01T03:02:33;15.33;;;10.87;;
16965;SDS011;8599;47.852;12.070;2023-03-01T03:05:05;19.10;;;12.40;;
16965;SDS011;8599;47.852;12.070;2023-03-01T03:07:34;17.60;;;10.77;;
16965;SDS011;8599;47.852;12.070;2023-03-01T03:10:03;17.83;;;11.20;;
16965;SDS011;8599;47.852;12.070;2023-03-01T03:12:31;23.10;;;11.03;;
16965;SDS011;8599;47.852;12.070;2023-03-01T03:14:58;19.63;;;11.60;;
16965;SDS011;8599;47.852;12.070;2023-03-01T03:17:25;16.33;;;11.13;;
16965;SDS011;8599;47.852;12.070;2023-03-01T03:19:53;18.03;;;10.07;;
16965;SDS011;8599;47.852;12.070;2023-03-01T03:22:20;14.87;;;9.67;;
16965;SDS011;8599;47.852;12.070;2023-03-01T03:24:47;18.77;;;11.67;;
16965;SDS011;8599;47.852;12.070;2023-03-01T03:27:14;18.17;;;11.43;;
16965;SDS011;8599;47.852;12.070;2023-03-01T03:29:40;20.07;;;11.43;;
16965;SDS011;8599;47.852;12.070;2023-03-01T03:32:07;22.20;;;12.43;;
16965;SDS011;8599;47.852;12.070;2023-03-01T03:34:34;18.20;;;11.73;;
16965;SDS011;8599;47.852;12.070;2023-03-01T03:37:08;22.43;;;11.50;;
16965;SDS011;8599;47.852;12.070;2023-03-01T03:39:55;15.47;;;10.97;;
16965;SDS011;8599;47.852;12.070;2023-03-01T03:42:22;16.67;;;10.93;;
16965;SDS011;8599;47.852;12.070;2023-03-01T03:44:49;16.20;;;10.63;;
16965;SDS011;8599;47.852;12.070;2023-03-01T03:47:16;20.93;;;12.70;;
16965;SDS011;8599;47.852;12.070;2023-03-01T03:49:42;19.37;;;11.40;;
16965;SDS011;8599;47.852;12.070;2023-03-01T03:52:10;16.70;;;10.57;;
16965;SDS011;8599;47.852;12.070;2023-03-01T03:54:38;19.00;;;11.13;;
16965;SDS011;8599;47.852;12.070;2023-03-01T03:57:05;11.43;;;9.33;;
16965;SDS011;8599;47.852;12.070;2023-03-01T03:59:32;15.73;;;11.70;;
16965;SDS011;8599;47.852;12.070;2023-03-01T04:01:59;14.77;;;11.20;;
16965;SDS011;8599;47.852;12.070;2023-03-01T04:04:26;22.57;;;11.57;;
16965;SDS011;8599;47.852;12.070;2023-03-01T04:06:53;16.33;;;11.17;;
16965;SDS011;8599;47.852;12.070;2023-03-01T04:09:21;16.47;;;10.47;;
16965;SDS011;8599;47.852;12.070;2023-03-01T04:11:48;15.93;;;11.43;;
16965;SDS011;8599;47.852;12.070;2023-03-01T04:14:14;17.93;;;11.07;;
16965;SDS011;8599;47.852;12.070;2023-03-01T04:16:41;17.87;;;10.20;;
16965;SDS011;8599;47.852;12.070;2023-03-01T04:19:08;17.30;;;10.60;;
16965;SDS011;8599;47.852;12.070;2023-03-01T04:21:35;22.03;;;10.90;;
16965;SDS011;8599;47.852;12.070;2023-03-01T04:24:02;17.17;;;11.33;;
16965;SDS011;8599;47.852;12.070;2023-03-01T04:26:31;17.10;;;10.77;;
16965;SDS011;8599;47.852;12.070;2023-03-01T04:28:58;20.73;;;10.93;;
16965;SDS011;8599;47.852;12.070;2023-03-01T04:31:24;15.53;;;10.23;;
16965;SDS011;8599;47.852;12.070;2023-03-01T04:33:52;18.33;;;10.83;;
16965;SDS011;8599;47.852;12.070;2023-03-01T04:36:21;18.17;;;11.57;;
16965;SDS011;8599;47.852;12.070;2023-03-01T04:38:49;19.73;;;11.80;;
16965;SDS011;8599;47.852;12.070;2023-03-01T04:41:18;21.67;;;11.73;;
16965;SDS011;8599;47.852;12.070;2023-03-01T04:43:47;16.03;;;11.40;;
16965;SDS011;8599;47.852;12.070;2023-03-01T04:46:15;15.30;;;10.83;;
16965;SDS011;8599;47.852;12.070;2023-03-01T04:48:43;21.60;;;12.13;;
16965;SDS011;8599;47.852;12.070;2023-03-01T04:51:11;24.60;;;11.63;;
16965;SDS011;8599;47.852;12.070;2023-03-01T04:53:39;17.33;;;11.47;;
16965;SDS011;8599;47.852;12.070;2023-03-01T04:56:06;20.43;;;11.47;;
16965;SDS011;8599;47.852;12.070;2023-03-01T04:58:33;16.40;;;10.90;;
16965;SDS011;8599;47.852;12.070;2023-03-01T05:01:07;18.10;;;10.40;;
16965;SDS011;8599;47.852;12.070;2023-03-01T05:03:40;22.97;;;12.17;;
16965;SDS011;8599;47.852;12.070;2023-03-01T05:06:08;18.00;;;11.77;;
16965;SDS011;8599;47.852;12.070;2023-03-01T05:08:35;17.80;;;11.03;;
16965;SDS011;8599;47.852;12.070;2023-03-01T05:11:03;15.80;;;10.93;;
16965;SDS011;8599;47.852;12.070;2023-03-01T05:13:30;16.80;;;10.60;;
16965;SDS011;8599;47.852;12.070;2023-03-01T05:15:58;22.73;;;11.27;;
16965;SDS011;8599;47.852;12.070;2023-03-01T05:18:27;17.33;;;11.70;;
16965;SDS011;8599;47.852;12.070;2023-03-01T05:20:56;17.07;;;12.23;;
16965;SDS011;8599;47.852;12.070;2023-03-01T05:23:29;23.07;;;11.47;;
16965;SDS011;8599;47.852;12.070;2023-03-01T05:25:57;21.00;;;11.80;;
16965;SDS011;8599;47.852;12.070;2023-03-01T05:28:24;23.53;;;12.00;;
16965;SDS011;8599;47.852;12.070;2023-03-01T05:30:51;20.93;;;12.30;;
16965;SDS011;8599;47.852;12.070;2023-03-01T05:33:18;18.10;;;11.33;;
16965;SDS011;8599;47.852;12.070;2023-03-01T05:35:48;19.50;;;12.47;;
16965;SDS011;8599;47.852;12.070;2023-03-01T05:38:16;19.53;;;12.20;;
16965;SDS011;8599;47.852;12.070;2023-03-01T05:40:44;18.43;;;11.30;;
16965;SDS011;8599;47.852;12.070;2023-03-01T05:43:12;17.10;;;12.03;;
16965;SDS011;8599;47.852;12.070;2023-03-01T05:45:41;17.20;;;11.17;;
16965;SDS011;8599;47.852;12.070;2023-03-01T05:48:08;28.73;;;13.80;;
16965;SDS011;8599;47.852;12.070;2023-03-01T05:50:38;18.37;;;11.37;;
16965;SDS011;8599;47.852;12.070;2023-03-01T05:53:09;18.17;;;11.57;;
16965;SDS011;8599;47.852;12.070;2023-03-01T05:55:37;17.33;;;10.93;;
16965;SDS011;8599;47.852;12.070;2023-03-01T05:58:05;20.30;;;11.63;;
16965;SDS011;8599;47.852;12.070;2023-03-01T06:00:33;19.87;;;12.53;;
16965;SDS011;8599;47.852;12.070;2023-03-01T06:03:00;15.90;;;11.57;;
16965;SDS011;8599;47.852;12.070;2023-03-01T06:05:28;22.37;;;12.93;;
16965;SDS011;8599;47.852;12.070;2023-03-01T06:07:55;20.30;;;12.37;;
16965;SDS011;8599;47.852;12.070;2023-03-01T06:10:26;23.23;;;12.50;;
16965;SDS011;8599;47.852;12.070;2023-03-01T06:12:55;17.73;;;11.53;;
16965;SDS011;8599;47.852;12.070;2023-03-01T06:15:22;17.47;;;11.50;;
16965;SDS011;8599;47.852;12.070;2023-03-01T06:17:49;27.67;;;12.10;;
16965;SDS011;8599;47.852;12.070;2023-03-01T06:20:17;16.87;;;12.03;;
16965;SDS011;8599;47.852;12.070;2023-03-01T06:22:45;21.47;;;12.33;;
16965;SDS011;8599;47.852;12.070;2023-03-01T06:25:14;28.03;;;13.73;;
16965;SDS011;8599;47.852;12.070;2023-03-01T06:27:44;22.80;;;12.83;;
16965;SDS011;8599;47.852;12.070;2023-03-01T06:30:12;23.67;;;12.70;;
16965;SDS011;8599;47.852;12.070;2023-03-01T06:32:40;21.03;;;12.87;;
16965;SDS011;8599;47.852;12.070;2023-03-01T06:35:08;18.80;;;12.67;;
16965;SDS011;8599;47.852;12.070;2023-03-01T06:37:36;21.33;;;11.67;;
16965;SDS011;8599;47.852;12.070;2023-03-01T06:40:03;20.00;;;12.57;;
16965;SDS011;8599;47.852;12.070;2023-03-01T06:42:33;17.53;;;11.77;;
16965;SDS011;8599;47.852;12.070;2023-03-01T06:45:01;21.10;;;12.07;;
16965;SDS011;8599;47.852;12.070;2023-03-01T06:47:29;19.00;;;11.17;;
16965;SDS011;8599;47.852;12.070;2023-03-01T06:49:56;21.90;;;12.63;;
16965;SDS011;8599;47.852;12.070;2023-03-01T06:52:22;17.67;;;12.67;;
16965;SDS011;8599;47.852;12.070;2023-03-01T06:54:49;20.13;;;11.87;;
16965;SDS011;8599;47.852;12.070;2023-03-01T06:57:16;15.67;;;12.10;;
16965;SDS011;8599;47.852;12.070;2023-03-01T06:59:43;20.60;;;12.33;;
16965;SDS011;8599;47.852;12.070;2023-03-01T07:02:11;23.40;;;12.47;;
16965;SDS011;8599;47.852;12.070;2023-03-01T07:04:40;20.00;;;11.57;;
16965;SDS011;8599;47.852;12.070;2023-03-01T07:07:07;27.77;;;13.03;;
16965;SDS011;8599;47.852;12.070;2023-03-01T07:09:34;18.60;;;12.33;;
16965;SDS011;8599;47.852;12.070;2023-03-01T07:12:01;18.23;;;11.77;;
16965;SDS011;8599;47.852;12.070;2023-03-01T07:14:28;19.47;;;13.27;;
16965;SDS011;8599;47.852;12.070;2023-03-01T07:16:55;19.37;;;13.20;;
16965;SDS011;8599;47.852;12.070;2023-03-01T07:19:23;17.10;;;12.03;;
16965;SDS011;8599;47.852;12.070;2023-03-01T07:21:50;20.67;;;12.97;;
16965;SDS011;8599;47.852;12.070;2023-03-01T07:24:17;19.47;;;12.17;;
16965;SDS011;8599;47.852;12.070;2023-03-01T07:26:43;23.63;;;12.97;;
16965;SDS011;8599;47.852;12.070;2023-03-01T07:29:13;29.07;;;13.57;;
16965;SDS011;8599;47.852;12.070;2023-03-01T07:31:40;19.77;;;13.17;;
16965;SDS011;8599;47.852;12.070;2023-03-01T07:34:07;21.13;;;12.20;;
16965;SDS011;8599;47.852;12.070;2023-03-01T07:36:35;23.60;;;12.67;;
16965;SDS011;8599;47.852;12.070;2023-03-01T07:39:02;18.00;;;12.57;;
16965;SDS011;8599;47.852;12.070;2023-03-01T07:41:29;18.17;;;12.70;;
16965;SDS011;8599;47.852;12.070;2023-03-01T07:43:56;20.13;;;12.73;;
16965;SDS011;8599;47.852;12.070;2023-03-01T07:46:23;21.33;;;14.13;;
16965;SDS011;8599;47.852;12.070;2023-03-01T07:48:49;20.87;;;12.77;;
16965;SDS011;8599;47.852;12.070;2023-03-01T07:51:16;26.13;;;13.67;;
16965;SDS011;8599;47.852;12.070;2023-03-01T07:53:46;20.13;;;13.03;;
16965;SDS011;8599;47.852;12.070;2023-03-01T07:56:14;21.90;;;13.90;;
16965;SDS011;8599;47.852;12.070;2023-03-01T07:58:43;20.77;;;13.20;;
16965;SDS011;8599;47.852;12.070;2023-03-01T08:01:11;19.70;;;13.90;;
16965;SDS011;8599;47.852;12.070;2023-03-01T08:03:39;19.07;;;13.60;;
16965;SDS011;8599;47.852;12.070;2023-03-01T08:06:07;24.73;;;14.37;;
16965;SDS011;8599;47.852;12.070;2023-03-01T08:08:35;22.87;;;13.83;;
16965;SDS011;8599;47.852;12.070;2023-03-01T08:11:04;22.73;;;15.23;;
16965;SDS011;8599;47.852;12.070;2023-03-01T08:13:32;24.83;;;15.93;;
16965;SDS011;8599;47.852;12.070;2023-03-01T08:16:03;22.80;;;13.93;;
16965;SDS011;8599;47.852;12.070;2023-03-01T08:18:31;24.57;;;15.40;;
16965;SDS011;8599;47.852;12.070;2023-03-01T08:21:00;22.90;;;14.27;;
16965;SDS011;8599;47.852;12.070;2023-03-01T08:23:28;20.97;;;12.93;;
16965;SDS011;8599;47.852;12.070;2023-03-01T08:25:55;19.00;;;13.37;;
16965;SDS011;8599;47.852;12.070;2023-03-01T08:28:30;19.57;;;13.03;;
16965;SDS011;8599;47.852;12.070;2023-03-01T08:30:56;23.03;;;13.70;;
16965;SDS011;8599;47.852;12.070;2023-03-01T08:33:23;27.60;;;14.67;;
16965;SDS011;8599;47.852;12.070;2023-03-01T08:35:50;23.63;;;15.33;;
16965;SDS011;8599;47.852;12.070;2023-03-01T08:38:17;24.83;;;15.57;;
16965;SDS011;8599;47.852;12.070;2023-03-01T08:40:43;25.00;;;14.73;;
16965;SDS011;8599;47.852;12.070;2023-03-01T08:43:12;27.10;;;15.00;;
16965;SDS011;8599;47.852;12.070;2023-03-01T08:45:38;23.43;;;14.40;;
16965;SDS011;8599;47.852;12.070;2023-03-01T08:48:05;25.03;;;14.43;;
16965;SDS011;8599;47.852;12.070;2023-03-01T08:50:32;26.17;;;14.80;;
16965;SDS011;8599;47.852;12.070;2023-03-01T08:52:59;28.83;;;14.23;;
16965;SDS011;8599;47.852;12.070;2023-03-01T08:55:25;25.03;;;14.77;;
16965;SDS011;8599;47.852;12.070;2023-03-01T08:57:52;29.90;;;15.63;;
16965;SDS011;8599;47.852;12.070;2023-03-01T09:00:21;22.90;;;14.90;;
16965;SDS011;8599;47.852;12.070;2023-03-01T09:02:48;23.70;;;14.40;;
16965;SDS011;8599;47.852;12.070;2023-03-01T09:05:15;26.07;;;14.43;;
16965;SDS011;8599;47.852;12.070;2023-03-01T09:07:41;23.90;;;14.57;;
16965;SDS011;8599;47.852;12.070;2023-03-01T09:10:09;24.93;;;15.33;;
16965;SDS011;8599;47.852;12.070;2023-03-01T09:12:36;21.93;;;14.33;;
16965;SDS011;8599;47.852;12.070;2023-03-01T09:15:03;26.13;;;14.07;;
16965;SDS011;8599;47.852;12.070;2023-03-01T09:17:32;21.70;;;13.73;;
16965;SDS011;8599;47.852;12.070;2023-03-01T09:19:59;22.53;;;14.30;;
16965;SDS011;8599;47.852;12.070;2023-03-01T09:22:25;25.63;;;14.23;;
16965;SDS011;8599;47.852;12.070;2023-03-01T09:24:52;23.50;;;14.90;;
16965;SDS011;8599;47.852;12.070;2023-03-01T09:27:19;21.03;;;14.13;;
16965;SDS011;8599;47.852;12.070;2023-03-01T09:29:46;24.53;;;13.40;;
16965;SDS011;8599;47.852;12.070;2023-03-01T09:32:13;18.57;;;13.33;;
16965;SDS011;8599;47.852;12.070;2023-03-01T09:34:41;24.33;;;14.23;;
16965;SDS011;8599;47.852;12.070;2023-03-01T09:37:26;23.07;;;14.33;;
16965;SDS011;8599;47.852;12.070;2023-03-01T09:39:53;24.83;;;14.07;;
16965;SDS011;8599;47.852;12.070;2023-03-01T09:42:19;22.90;;;14.07;;
16965;SDS011;8599;47.852;12.070;2023-03-01T09:44:47;20.47;;;14.13;;
16965;SDS011;8599;47.852;12.070;2023-03-01T09:47:18;27.10;;;14.77;;
16965;SDS011;8599;47.852;12.070;2023-03-01T09:49:50;23.13;;;14.37;;
16965;SDS011;8599;47.852;12.070;2023-03-01T09:52:26;26.43;;;15.47;;
16965;SDS011;8599;47.852;12.070;2023-03-01T09:54:59;25.87;;;14.23;;
16965;SDS011;8599;47.852;12.070;2023-03-01T09:57:26;20.40;;;13.13;;
16965;SDS011;8599;47.852;12.070;2023-03-01T10:00:01;27.77;;;14.37;;
16965;SDS011;8599;47.852;12.070;2023-03-01T10:02:38;20.83;;;12.90;;
16965;SDS011;8599;47.852;12.070;2023-03-01T10:05:17;29.63;;;13.70;;
16965;SDS011;8599;47.852;12.070;2023-03-01T10:07:54;20.50;;;13.93;;
16965;SDS011;8599;47.852;12.070;2023-03-01T10:10:34;20.23;;;14.13;;
16965;SDS011;8599;47.852;12.070;2023-03-01T10:13:06;21.80;;;14.03;;
16965;SDS011;8599;47.852;12.070;2023-03-01T10:15:43;22.43;;;14.13;;
16965;SDS011;8599;47.852;12.070;2023-03-01T10:18:14;28.67;;;14.57;;
16965;SDS011;8599;47.852;12.070;2023-03-01T10:20:46;24.37;;;14.03;;
16965;SDS011;8599;47.852;12.070;2023-03-01T10:23:19;24.03;;;15.07;;
16965;SDS011;8599;47.852;12.070;2023-03-01T10:25:53;27.23;;;15.57;;
16965;SDS011;8599;47.852;12.070;2023-03-01T10:28:31;26.50;;;14.17;;
16965;SDS011;8599;47.852;12.070;2023-03-01T10:31:05;27.93;;;14.83;;
16965;SDS011;8599;47.852;12.070;2023-03-01T10:33:38;26.97;;;14.17;;
16965;SDS011;8599;47.852;12.070;2023-03-01T10:36:07;26.37;;;14.50;;
16965;SDS011;8599;47.852;12.070;2023-03-01T10:38:46;19.90;;;12.27;;
16965;SDS011;8599;47.852;12.070;2023-03-01T10:41:17;22.97;;;14.17;;
16965;SDS011;8599;47.852;12.070;2023-03-01T10:43:45;22.27;;;13.27;;
16965;SDS011;8599;47.852;12.070;2023-03-01T10:46:21;19.67;;;11.87;;
16965;SDS011;8599;47.852;12.070;2023-03-01T10:49:04;19.40;;;12.60;;
16965;SDS011;8599;47.852;12.070;2023-03-01T10:51:34;18.07;;;12.80;;
16965;SDS011;8599;47.852;12.070;2023-03-01T10:54:00;28.03;;;14.90;;
16965;SDS011;8599;47.852;12.070;2023-03-01T10:56:29;23.03;;;14.30;;
16965;SDS011;8599;47.852;12.070;2023-03-01T10:59:19;25.60;;;15.87;;
16965;SDS011;8599;47.852;12.070;2023-03-01T11:02:02;24.73;;;13.17;;
16965;SDS011;8599;47.852;12.070;2023-03-01T11:04:38;26.63;;;13.43;;
16965;SDS011;8599;47.852;12.070;2023-03-01T11:07:08;22.50;;;13.87;;
16965;SDS011;8599;47.852;12.070;2023-03-01T11:09:35;26.93;;;14.93;;
16965;SDS011;8599;47.852;12.070;2023-03-01T11:12:03;24.30;;;13.80;;
16965;SDS011;8599;47.852;12.070;2023-03-01T11:14:39;20.10;;;13.97;;
16965;SDS011;8599;47.852;12.070;2023-03-01T11:17:15;23.33;;;14.67;;
16965;SDS011;8599;47.852;12.070;2023-03-01T11:19:44;23.50;;;14.03;;
16965;SDS011;8599;47.852;12.070;2023-03-01T11:22:29;22.93;;;14.33;;
16965;SDS011;8599;47.852;12.070;2023-03-01T11:24:57;34.63;;;14.30;;
16965;SDS011;8599;47.852;12.070;2023-03-01T11:27:25;21.63;;;14.03;;
16965;SDS011;8599;47.852;12.070;2023-03-01T11:29:55;23.40;;;14.73;;
16965;SDS011;8599;47.852;12.070;2023-03-01T11:32:28;34.40;;;15.13;;
16965;SDS011;8599;47.852;12.070;2023-03-01T11:35:02;19.17;;;14.17;;
16965;SDS011;8599;47.852;12.070;2023-03-01T11:37:37;20.00;;;12.73;;
16965;SDS011;8599;47.852;12.070;2023-03-01T11:40:11;31.20;;;13.70;;
16965;SDS011;8599;47.852;12.070;2023-03-01T11:42:56;22.73;;;13.70;;
16965;SDS011;8599;47.852;12.070;2023-03-01T11:45:30;21.47;;;13.77;;
16965;SDS011;8599;47.852;12.070;2023-03-01T11:48:07;22.53;;;14.10;;
16965;SDS011;8599;47.852;12.070;2023-03-01T11:50:47;20.77;;;13.70;;
16965;SDS011;8599;47.852;12.070;2023-03-01T11:53:34;19.07;;;12.77;;
16965;SDS011;8599;47.852;12.070;2023-03-01T11:56:20;20.57;;;13.10;;
16965;SDS011;8599;47.852;12.070;2023-03-01T12:02:13;26.63;;;13.67;;
16965;SDS011;8599;47.852;12.070;2023-03-01T12:05:00;19.37;;;12.93;;
16965;SDS011;8599;47.852;12.070;2023-03-01T12:07:43;21.00;;;12.67;;
16965;SDS011;8599;47.852;12.070;2023-03-01T12:10:27;17.63;;;13.30;;
16965;SDS011;8599;47.852;12.070;2023-03-01T12:13:08;21.03;;;13.60;;
16965;SDS011;8599;47.852;12.070;2023-03-01T12:15:49;23.53;;;12.50;;
16965;SDS011;8599;47.852;12.070;2023-03-01T12:18:35;23.83;;;14.20;;
16965;SDS011;8599;47.852;12.070;2023-03-01T12:21:26;20.57;;;12.40;;
16965;SDS011;8599;47.852;12.070;2023-03-01T12:24:16;23.60;;;14.13;;
16965;SDS011;8599;47.852;12.070;2023-03-01T12:27:00;26.53;;;13.50;;
16965;SDS011;8599;47.852;12.070;2023-03-01T12:29:45;21.03;;;13.37;;
16965;SDS011;8599;47.852;12.070;2023-03-01T12:32:23;17.97;;;13.47;;
16965;SDS011;8599;47.852;12.070;2023-03-01T12:38:06;23.17;;;12.57;;
16965;SDS011;8599;47.852;12.070;2023-03-01T12:40:53;21.10;;;12.87;;
16965;SDS011;8599;47.852;12.070;2023-03-01T12:43:38;21.00;;;12.77;;
16965;SDS011;8599;47.852;12.070;2023-03-01T12:46:21;26.47;;;13.03;;
16965;SDS011;8599;47.852;12.070;2023-03-01T12:48:56;20.13;;;11.93;;
16965;SDS011;8599;47.852;12.070;2023-03-01T12:51:31;19.60;;;12.90;;
16965;SDS011;8599;47.852;12.070;2023-03-01T12:54:01;16.07;;;11.47;;
16965;SDS011;8599;47.852;12.070;2023-03-01T12:56:37;17.70;;;11.83;;
16965;SDS011;8599;47.852;12.070;2023-03-01T12:59:08;19.20;;;12.57;;
16965;SDS011;8599;47.852;12.070;2023-03-01T13:01:42;18.30;;;12.83;;
16965;SDS011;8599;47.852;12.070;2023-03-01T13:04:16;22.23;;;13.37;;
16965;SDS011;8599;47.852;12.070;2023-03-01T13:06:54;21.23;;;12.97;;
16965;SDS011;8599;47.852;12.070;2023-03-01T13:09:29;22.93;;;13.07;;
16965;SDS011;8599;47.852;12.070;2023-03-01T13:12:01;22.10;;;14.03;;
16965;SDS011;8599;47.852;12.070;2023-03-01T13:14:36;21.73;;;12.60;;
16965;SDS011;8599;47.852;12.070;2023-03-01T13:19:56;21.00;;;13.60;;
16965;SDS011;8599;47.852;12.070;2023-03-01T13:22:25;24.80;;;14.93;;
16965;SDS011;8599;47.852;12.070;2023-03-01T13:25:00;21.23;;;13.93;;
16965;SDS011;8599;47.852;12.070;2023-03-01T13:27:29;22.93;;;14.00;;
16965;SDS011;8599;47.852;12.070;2023-03-01T13:29:59;23.40;;;14.50;;
16965;SDS011;8599;47.852;12.070;2023-03-01T13:32:30;20.37;;;13.80;;
16965;SDS011;8599;47.852;12.070;2023-03-01T13:34:58;27.00;;;13.80;;
16965;SDS011;8599;47.852;12.070;2023-03-01T13:37:30;18.50;;;13.17;;
16965;SDS011;8599;47.852;12.070;2023-03-01T13:40:00;22.73;;;13.37;;
16965;SDS011;8599;47.852;12.070;2023-03-01T13:42:33;23.33;;;15.47;;
16965;SDS011;8599;47.852;12.070;2023-03-01T13:45:12;17.43;;;12.83;;
16965;SDS011;8599;47.852;12.070;2023-03-01T13:47:44;24.93;;;13.23;;
16965;SDS011;8599;47.852;12.070;2023-03-01T13:50:18;23.47;;;14.20;;
16965;SDS011;8599;47.852;12.070;2023-03-01T13:52:50;19.77;;;14.20;;
16965;SDS011;8599;47.852;12.070;2023-03-01T13:55:23;24.37;;;14.23;;
16965;SDS011;8599;47.852;12.070;2023-03-01T13:57:54;26.47;;;14.37;;
16965;SDS011;8599;47.852;12.070;2023-03-01T14:00:33;23.33;;;14.13;;
16965;SDS011;8599;47.852;12.070;2023-03-01T14:03:05;25.50;;;14.30;;
16965;SDS011;8599;47.852;12.070;2023-03-01T14:05:37;20.47;;;13.73;;
16965;SDS011;8599;47.852;12.070;2023-03-01T14:08:05;18.33;;;13.33;;
16965;SDS011;8599;47.852;12.070;2023-03-01T14:10:49;22.73;;;13.73;;
16965;SDS011;8599;47.852;12.070;2023-03-01T14:13:28;24.83;;;13.70;;
16965;SDS011;8599;47.852;12.070;2023-03-01T14:16:14;19.17;;;12.70;;
16965;SDS011;8599;47.852;12.070;2023-03-01T14:18:53;18.80;;;13.37;;
16965;SDS011;8599;47.852;12.070;2023-03-01T14:21:28;20.53;;;13.73;;
16965;SDS011;8599;47.852;12.070;2023-03-01T14:23:56;27.63;;;13.67;;
16965;SDS011;8599;47.852;12.070;2023-03-01T14:26:24;30.73;;;14.13;;
16965;SDS011;8599;47.852;12.070;2023-03-01T14:28:51;24.13;;;14.87;;
16965;SDS011;8599;47.852;12.070;2023-03-01T14:31:34;24.33;;;14.13;;
16965;SDS011;8599;47.852;12.070;2023-03-01T14:34:02;28.70;;;14.70;;
16965;SDS011;8599;47.852;12.070;2023-03-01T14:36:30;20.90;;;14.30;;
16965;SDS011;8599;47.852;12.070;2023-03-01T14:38:58;22.50;;;14.70;;
16965;SDS011;8599;47.852;12.070;2023-03-01T14:41:30;22.77;;;13.90;;
16965;SDS011;8599;47.852;12.070;2023-03-01T14:44:00;22.50;;;14.83;;
16965;SDS011;8599;47.852;12.070;2023-03-01T14:46:30;28.37;;;14.27;;
16965;SDS011;8599;47.852;12.070;2023-03-01T14:49:02;19.40;;;14.77;;
16965;SDS011;8599;47.852;12.070;2023-03-01T14:51:31;20.73;;;14.00;;